sensor_id;sensor_type;location;lat;lon;timestamp;pressure;altitude;pressure_sealevel;temperature;humidity
54920;BME280;63804;53.120;8.764;2023-07-29T00:00:50;100770.22;;;19.95;84.18
54920;BME280;63804;53.120;8.764;2023-07-29T00:03:18;100771.25;;;19.94;84.37
54920;BME280;63804;53.120;8.764;2023-07-29T00:05:45;100755.25;;;20.01;84.34
54920;BME280;63804;53.120;8.764;2023-07-29T00:08:13;100754.41;;;20.01;84.70
54920;BME280;63804;53.120;8.764;2023-07-29T00:10:40;100750.22;;;19.98;84.80
54920;BME280;63804;53.120;8.764;2023-07-29T00:13:07;100747.72;;;19.96;84.73
54920;BME280;63804;53.120;8.764;2023-07-29T00:15:35;100747.53;;;19.98;84.79
54920;BME280;63804;53.120;8.764;2023-07-29T00:18:02;100739.66;;;19.96;84.00
54920;BME280;63804;53.120;8.764;2023-07-29T00:20:30;100734.81;;;19.92;84.80
54920;BME280;63804;53.120;8.764;2023-07-29T00:22:57;100729.25;;;19.93;84.34
54920;BME280;63804;53.120;8.764;2023-07-29T00:25:25;100728.41;;;19.93;84.32
54920;BME280;63804;53.120;8.764;2023-07-29T00:27:55;100729.97;;;19.79;85.21
54920;BME280;63804;53.120;8.764;2023-07-29T00:30:22;100725.16;;;19.58;85.66
54920;BME280;63804;53.120;8.764;2023-07-29T00:32:50;100728.81;;;19.57;85.89
54920;BME280;63804;53.120;8.764;2023-07-29T00:35:17;100735.72;;;19.60;85.76
54920;BME280;63804;53.120;8.764;2023-07-29T00:37:44;100731.88;;;19.62;85.63
54920;BME280;63804;53.120;8.764;2023-07-29T00:40:19;100737.22;;;19.70;85.11
54920;BME280;63804;53.120;8.764;2023-07-29T00:42:48;100732.69;;;19.71;85.46
54920;BME280;63804;53.120;8.764;2023-07-29T00:45:16;100726.09;;;19.82;85.02
54920;BME280;63804;53.120;8.764;2023-07-29T00:47:44;100723.91;;;19.85;85.11
54920;BME280;63804;53.120;8.764;2023-07-29T00:50:12;100734.47;;;19.87;84.70
54920;BME280;63804;53.120;8.764;2023-07-29T00:52:40;100725.91;;;19.83;85.06
54920;BME280;63804;53.120;8.764;2023-07-29T00:55:08;100725.81;;;19.77;85.38
54920;BME280;63804;53.120;8.764;2023-07-29T00:57:36;100731.03;;;19.70;85.35
54920;BME280;63804;53.120;8.764;2023-07-29T01:00:03;100727.00;;;19.66;85.90
54920;BME280;63804;53.120;8.764;2023-07-29T01:02:32;100740.59;;;19.64;85.53
54920;BME280;63804;53.120;8.764;2023-07-29T01:05:00;100734.06;;;19.67;85.16
54920;BME280;63804;53.120;8.764;2023-07-29T01:13:06;100742.22;;;19.82;84.99
54920;BME280;63804;53.120;8.764;2023-07-29T01:18:20;100735.00;;;19.82;85.08
54920;BME280;63804;53.120;8.764;2023-07-29T01:20:53;100731.19;;;19.68;84.96
54920;BME280;63804;53.120;8.764;2023-07-29T01:23:24;100738.41;;;19.68;85.38
54920;BME280;63804;53.120;8.764;2023-07-29T01:25:51;100727.66;;;19.68;84.97
54920;BME280;63804;53.120;8.764;2023-07-29T01:28:18;100731.84;;;19.70;84.56
54920;BME280;63804;53.120;8.764;2023-07-29T01:30:49;100731.00;;;19.78;84.97
54920;BME280;63804;53.120;8.764;2023-07-29T01:33:25;100730.66;;;19.81;84.50
54920;BME280;63804;53.120;8.764;2023-07-29T01:36:05;100727.28;;;19.79;84.38
54920;BME280;63804;53.120;8.764;2023-07-29T01:38:38;100735.56;;;19.69;84.54
54920;BME280;63804;53.120;8.764;2023-07-29T01:41:08;100715.06;;;19.60;84.82
54920;BME280;63804;53.120;8.764;2023-07-29T01:43:37;100713.38;;;19.59;84.83
54920;BME280;63804;53.120;8.764;2023-07-29T01:46:14;100717.94;;;19.51;85.52
54920;BME280;63804;53.120;8.764;2023-07-29T01:48:42;100718.63;;;19.44;85.29
54920;BME280;63804;53.120;8.764;2023-07-29T01:51:11;100713.22;;;19.53;85.34
54920;BME280;63804;53.120;8.764;2023-07-29T01:53:39;100704.03;;;19.47;84.88
54920;BME280;63804;53.120;8.764;2023-07-29T01:56:06;100720.47;;;19.44;84.99
54920;BME280;63804;53.120;8.764;2023-07-29T01:58:34;100713.94;;;19.46;85.14
54920;BME280;63804;53.120;8.764;2023-07-29T02:01:01;100706.00;;;19.53;84.84
54920;BME280;63804;53.120;8.764;2023-07-29T02:03:28;100712.72;;;19.49;84.93
54920;BME280;63804;53.120;8.764;2023-07-29T02:05:55;100718.09;;;19.49;84.61
54920;BME280;63804;53.120;8.764;2023-07-29T02:08:23;100718.78;;;19.51;84.54
54920;BME280;63804;53.120;8.764;2023-07-29T02:10:50;100719.13;;;19.48;84.67
54920;BME280;63804;53.120;8.764;2023-07-29T02:13:17;100715.09;;;19.44;84.89
54920;BME280;63804;53.120;8.764;2023-07-29T02:15:44;100696.31;;;19.44;84.94
54920;BME280;63804;53.120;8.764;2023-07-29T02:18:12;100703.69;;;19.42;84.68
54920;BME280;63804;53.120;8.764;2023-07-29T02:20:39;100706.75;;;19.39;85.22
54920;BME280;63804;53.120;8.764;2023-07-29T02:23:06;100705.41;;;19.35;84.95
54920;BME280;63804;53.120;8.764;2023-07-29T02:25:37;100706.75;;;19.39;85.15
54920;BME280;63804;53.120;8.764;2023-07-29T02:28:04;100701.22;;;19.32;84.99
54920;BME280;63804;53.120;8.764;2023-07-29T02:30:31;100695.50;;;19.35;85.13
54920;BME280;63804;53.120;8.764;2023-07-29T02:32:59;100697.81;;;19.38;84.73
54920;BME280;63804;53.120;8.764;2023-07-29T02:35:28;100687.59;;;19.34;84.61
54920;BME280;63804;53.120;8.764;2023-07-29T02:37:55;100693.66;;;19.28;85.03
54920;BME280;63804;53.120;8.764;2023-07-29T02:40:23;100690.47;;;19.32;84.72
54920;BME280;63804;53.120;8.764;2023-07-29T02:42:52;100693.50;;;19.21;85.27
54920;BME280;63804;53.120;8.764;2023-07-29T02:45:20;100691.00;;;19.19;84.95
54920;BME280;63804;53.120;8.764;2023-07-29T02:47:47;100685.13;;;19.16;85.56
54920;BME280;63804;53.120;8.764;2023-07-29T02:50:14;100692.31;;;19.15;85.10
54920;BME280;63804;53.120;8.764;2023-07-29T02:52:41;100693.84;;;19.18;84.95
54920;BME280;63804;53.120;8.764;2023-07-29T02:55:09;100696.72;;;19.16;85.05
54920;BME280;63804;53.120;8.764;2023-07-29T02:57:36;100691.34;;;19.16;84.91
54920;BME280;63804;53.120;8.764;2023-07-29T03:00:04;100690.63;;;19.22;84.57
54920;BME280;63804;53.120;8.764;2023-07-29T03:02:34;100687.47;;;19.19;84.95
54920;BME280;63804;53.120;8.764;2023-07-29T03:05:01;100693.00;;;19.17;84.90
54920;BME280;63804;53.120;8.764;2023-07-29T03:07:29;100692.69;;;19.12;84.91
54920;BME280;63804;53.120;8.764;2023-07-29T03:09:56;100691.50;;;19.15;84.94
54920;BME280;63804;53.120;8.764;2023-07-29T03:12:23;100698.91;;;19.13;84.81
54920;BME280;63804;53.120;8.764;2023-07-29T03:14:51;100707.78;;;19.13;84.94
54920;BME280;63804;53.120;8.764;2023-07-29T03:17:18;100700.06;;;19.10;84.49
54920;BME280;63804;53.120;8.764;2023-07-29T03:19:45;100706.59;;;19.08;84.89
54920;BME280;63804;53.120;8.764;2023-07-29T03:22:13;100703.91;;;19.08;84.89
54920;BME280;63804;53.120;8.764;2023-07-29T03:24:40;100708.63;;;19.06;84.94
54920;BME280;63804;53.120;8.764;2023-07-29T03:27:09;100710.81;;;19.10;84.43
54920;BME280;63804;53.120;8.764;2023-07-29T03:29:37;100712.84;;;19.08;84.67
54920;BME280;63804;53.120;8.764;2023-07-29T03:32:04;100715.53;;;19.08;84.48
54920;BME280;63804;53.120;8.764;2023-07-29T03:34:31;100710.81;;;19.10;84.79
54920;BME280;63804;53.120;8.764;2023-07-29T03:37:00;100707.44;;;19.16;84.65
54920;BME280;63804;53.120;8.764;2023-07-29T03:39:28;100698.56;;;19.16;84.46
54920;BME280;63804;53.120;8.764;2023-07-29T03:41:55;100697.88;;;19.14;84.43
54920;BME280;63804;53.120;8.764;2023-07-29T03:44:22;100703.94;;;19.16;84.40
54920;BME280;63804;53.120;8.764;2023-07-29T03:46:50;100690.84;;;19.13;84.56
54920;BME280;63804;53.120;8.764;2023-07-29T03:49:17;100681.47;;;19.09;84.37
54920;BME280;63804;53.120;8.764;2023-07-29T03:51:44;100679.91;;;19.14;84.60
54920;BME280;63804;53.120;8.764;2023-07-29T03:54:12;100688.16;;;19.13;84.45
54920;BME280;63804;53.120;8.764;2023-07-29T03:56:40;100686.31;;;19.13;84.24
54920;BME280;63804;53.120;8.764;2023-07-29T03:59:07;100697.03;;;19.21;84.06
54920;BME280;63804;53.120;8.764;2023-07-29T04:01:34;100697.72;;;19.23;83.85
54920;BME280;63804;53.120;8.764;2023-07-29T04:04:02;100686.59;;;19.27;83.83
54920;BME280;63804;53.120;8.764;2023-07-29T04:06:29;100673.19;;;19.27;84.01
54920;BME280;63804;53.120;8.764;2023-07-29T04:08:58;100674.38;;;19.24;84.09
54920;BME280;63804;53.120;8.764;2023-07-29T04:11:26;100679.91;;;19.22;84.14
54920;BME280;63804;53.120;8.764;2023-07-29T04:13:53;100677.59;;;19.19;84.12
54920;BME280;63804;53.120;8.764;2023-07-29T04:16:21;100675.38;;;19.23;84.21
54920;BME280;63804;53.120;8.764;2023-07-29T04:18:48;100666.47;;;19.22;84.10
54920;BME280;63804;53.120;8.764;2023-07-29T04:21:16;100666.97;;;19.26;84.23
54920;BME280;63804;53.120;8.764;2023-07-29T04:23:43;100672.00;;;19.29;84.38
54920;BME280;63804;53.120;8.764;2023-07-29T04:26:10;100678.53;;;19.27;84.59
54920;BME280;63804;53.120;8.764;2023-07-29T04:28:38;100676.34;;;19.30;83.97
54920;BME280;63804;53.120;8.764;2023-07-29T04:31:05;100679.53;;;19.34;83.72
54920;BME280;63804;53.120;8.764;2023-07-29T04:33:32;100680.19;;;19.44;83.80
54920;BME280;63804;53.120;8.764;2023-07-29T04:36:03;100683.19;;;19.49;83.71
54920;BME280;63804;53.120;8.764;2023-07-29T04:38:32;100674.13;;;19.42;83.91
54920;BME280;63804;53.120;8.764;2023-07-29T04:41:00;100678.53;;;19.43;84.50
54920;BME280;63804;53.120;8.764;2023-07-29T04:43:32;100676.81;;;19.50;83.91
54920;BME280;63804;53.120;8.764;2023-07-29T04:46:00;100671.31;;;19.43;84.34
54920;BME280;63804;53.120;8.764;2023-07-29T04:48:27;100666.44;;;19.39;84.22
54920;BME280;63804;53.120;8.764;2023-07-29T04:50:55;100658.72;;;19.44;84.30
54920;BME280;63804;53.120;8.764;2023-07-29T04:53:22;100657.88;;;19.43;84.12
54920;BME280;63804;53.120;8.764;2023-07-29T04:55:49;100659.00;;;19.49;83.88
54920;BME280;63804;53.120;8.764;2023-07-29T04:58:17;100655.50;;;19.48;83.65
54920;BME280;63804;53.120;8.764;2023-07-29T05:00:46;100651.78;;;19.49;83.84
54920;BME280;63804;53.120;8.764;2023-07-29T05:03:14;100663.22;;;19.52;83.94
54920;BME280;63804;53.120;8.764;2023-07-29T05:05:41;100653.31;;;19.52;83.94
54920;BME280;63804;53.120;8.764;2023-07-29T05:08:08;100651.78;;;19.49;83.89
54920;BME280;63804;53.120;8.764;2023-07-29T05:10:36;100643.03;;;19.56;83.29
54920;BME280;63804;53.120;8.764;2023-07-29T05:13:03;100645.19;;;19.60;82.96
54920;BME280;63804;53.120;8.764;2023-07-29T05:15:30;100638.50;;;19.64;83.03
54920;BME280;63804;53.120;8.764;2023-07-29T05:17:58;100636.16;;;19.69;82.70
54920;BME280;63804;53.120;8.764;2023-07-29T05:20:25;100633.25;;;19.71;82.63
54920;BME280;63804;53.120;8.764;2023-07-29T05:22:52;100634.78;;;19.74;82.63
54920;BME280;63804;53.120;8.764;2023-07-29T05:25:20;100635.41;;;19.76;82.48
54920;BME280;63804;53.120;8.764;2023-07-29T05:27:47;100636.25;;;19.84;82.49
54920;BME280;63804;53.120;8.764;2023-07-29T05:30:14;100638.53;;;19.87;82.12
54920;BME280;63804;53.120;8.764;2023-07-29T05:32:42;100641.44;;;19.86;82.52
54920;BME280;63804;53.120;8.764;2023-07-29T05:35:10;100629.31;;;19.90;82.25
54920;BME280;63804;53.120;8.764;2023-07-29T05:37:38;100633.84;;;19.89;82.63
54920;BME280;63804;53.120;8.764;2023-07-29T05:40:07;100643.09;;;19.87;82.96
54920;BME280;63804;53.120;8.764;2023-07-29T05:42:35;100630.88;;;19.76;83.04
54920;BME280;63804;53.120;8.764;2023-07-29T05:45:03;100637.41;;;19.82;82.98
54920;BME280;63804;53.120;8.764;2023-07-29T05:47:30;100640.75;;;19.84;82.94
54920;BME280;63804;53.120;8.764;2023-07-29T05:49:57;100647.97;;;19.83;82.78
54920;BME280;63804;53.120;8.764;2023-07-29T05:52:28;100634.59;;;19.75;82.82
54920;BME280;63804;53.120;8.764;2023-07-29T05:54:56;100650.91;;;19.74;83.13
54920;BME280;63804;53.120;8.764;2023-07-29T05:57:23;100654.91;;;19.78;83.56
54920;BME280;63804;53.120;8.764;2023-07-29T05:59:50;100642.66;;;19.75;83.34
54920;BME280;63804;53.120;8.764;2023-07-29T06:02:17;100645.28;;;19.83;83.24
54920;BME280;63804;53.120;8.764;2023-07-29T06:04:45;100652.19;;;19.86;82.87
54920;BME280;63804;53.120;8.764;2023-07-29T06:07:12;100644.25;;;19.92;82.96
54920;BME280;63804;53.120;8.764;2023-07-29T06:09:39;100651.59;;;19.99;82.59
54920;BME280;63804;53.120;8.764;2023-07-29T06:12:07;100652.44;;;19.99;82.74
54920;BME280;63804;53.120;8.764;2023-07-29T06:14:35;100646.53;;;20.04;82.75
54920;BME280;63804;53.120;8.764;2023-07-29T06:17:02;100646.00;;;20.08;82.98
54920;BME280;63804;53.120;8.764;2023-07-29T06:19:30;100650.59;;;20.00;83.22
54920;BME280;63804;53.120;8.764;2023-07-29T06:21:57;100657.94;;;20.06;82.98
54920;BME280;63804;53.120;8.764;2023-07-29T06:24:24;100659.44;;;20.08;83.26
54920;BME280;63804;53.120;8.764;2023-07-29T06:26:52;100663.44;;;20.12;82.75
54920;BME280;63804;53.120;8.764;2023-07-29T06:29:19;100668.81;;;20.12;83.16
54920;BME280;63804;53.120;8.764;2023-07-29T06:31:47;100663.25;;;20.14;83.04
54920;BME280;63804;53.120;8.764;2023-07-29T06:34:14;100665.44;;;20.18;83.16
54920;BME280;63804;53.120;8.764;2023-07-29T06:36:41;100671.47;;;20.20;82.73
54920;BME280;63804;53.120;8.764;2023-07-29T06:39:09;100675.81;;;20.21;82.42
54920;BME280;63804;53.120;8.764;2023-07-29T06:41:36;100671.47;;;20.20;82.27
54920;BME280;63804;53.120;8.764;2023-07-29T06:44:03;100676.78;;;20.29;82.71
54920;BME280;63804;53.120;8.764;2023-07-29T06:46:31;100677.25;;;20.32;82.52
54920;BME280;63804;53.120;8.764;2023-07-29T06:48:59;100666.34;;;20.34;81.77
54920;BME280;63804;53.120;8.764;2023-07-29T06:51:26;100666.44;;;20.40;81.72
54920;BME280;63804;53.120;8.764;2023-07-29T06:53:54;100661.91;;;20.41;81.59
54920;BME280;63804;53.120;8.764;2023-07-29T06:56:21;100656.72;;;20.39;81.68
54920;BME280;63804;53.120;8.764;2023-07-29T06:58:48;100657.66;;;20.47;81.17
54920;BME280;63804;53.120;8.764;2023-07-29T07:01:16;100653.94;;;20.48;81.30
54920;BME280;63804;53.120;8.764;2023-07-29T07:03:43;100660.03;;;20.50;81.32
54920;BME280;63804;53.120;8.764;2023-07-29T07:06:10;100656.78;;;20.54;80.61
54920;BME280;63804;53.120;8.764;2023-07-29T07:08:38;100660.72;;;20.66;80.31
54920;BME280;63804;53.120;8.764;2023-07-29T07:11:05;100660.66;;;20.75;80.05
54920;BME280;63804;53.120;8.764;2023-07-29T07:13:33;100664.19;;;20.75;80.01
54920;BME280;63804;53.120;8.764;2023-07-29T07:16:00;100657.13;;;20.74;80.35
54920;BME280;63804;53.120;8.764;2023-07-29T07:18:28;100661.69;;;20.74;79.94
54920;BME280;63804;53.120;8.764;2023-07-29T07:20:55;100666.50;;;20.78;79.70
54920;BME280;63804;53.120;8.764;2023-07-29T07:23:22;100677.75;;;20.82;79.61
54920;BME280;63804;53.120;8.764;2023-07-29T07:25:50;100668.28;;;20.86;79.42
54920;BME280;63804;53.120;8.764;2023-07-29T07:28:17;100678.50;;;20.90;79.12
54920;BME280;63804;53.120;8.764;2023-07-29T07:30:44;100674.16;;;20.89;78.92
54920;BME280;63804;53.120;8.764;2023-07-29T07:33:12;100677.97;;;20.95;78.84
54920;BME280;63804;53.120;8.764;2023-07-29T07:35:39;100665.81;;;20.99;78.20
54920;BME280;63804;53.120;8.764;2023-07-29T07:38:09;100680.88;;;21.08;78.28
54920;BME280;63804;53.120;8.764;2023-07-29T07:40:37;100674.84;;;21.06;77.88
54920;BME280;63804;53.120;8.764;2023-07-29T07:43:04;100677.44;;;21.00;77.84
54920;BME280;63804;53.120;8.764;2023-07-29T07:45:32;100677.31;;;20.93;77.64
54920;BME280;63804;53.120;8.764;2023-07-29T07:48:02;100685.59;;;20.91;77.48
54920;BME280;63804;53.120;8.764;2023-07-29T07:50:30;100686.34;;;21.00;77.01
54920;BME280;63804;53.120;8.764;2023-07-29T07:55:25;100696.66;;;21.11;75.85
54920;BME280;63804;53.120;8.764;2023-07-29T07:57:52;100696.94;;;21.16;75.79
54920;BME280;63804;53.120;8.764;2023-07-29T08:00:19;100688.69;;;21.18;74.94
54920;BME280;63804;53.120;8.764;2023-07-29T08:02:47;100700.66;;;21.15;74.78
54920;BME280;63804;53.120;8.764;2023-07-29T08:05:14;100695.91;;;21.17;74.76
54920;BME280;63804;53.120;8.764;2023-07-29T08:07:42;100692.50;;;21.24;74.83
54920;BME280;63804;53.120;8.764;2023-07-29T08:10:09;100685.34;;;21.16;74.27
54920;BME280;63804;53.120;8.764;2023-07-29T08:12:37;100680.50;;;21.11;74.00
54920;BME280;63804;53.120;8.764;2023-07-29T08:15:05;100673.06;;;21.13;73.68
54920;BME280;63804;53.120;8.764;2023-07-29T08:17:32;100671.50;;;21.19;73.24
54920;BME280;63804;53.120;8.764;2023-07-29T08:19:59;100671.97;;;21.23;73.17
54920;BME280;63804;53.120;8.764;2023-07-29T08:22:27;100662.66;;;21.25;73.51
54920;BME280;63804;53.120;8.764;2023-07-29T08:24:55;100666.50;;;21.31;72.85
54920;BME280;63804;53.120;8.764;2023-07-29T08:27:22;100672.63;;;21.25;72.99
54920;BME280;63804;53.120;8.764;2023-07-29T08:29:50;100671.16;;;21.22;71.83
54920;BME280;63804;53.120;8.764;2023-07-29T08:32:17;100677.06;;;21.17;71.01
54920;BME280;63804;53.120;8.764;2023-07-29T08:34:44;100671.69;;;21.17;70.18
54920;BME280;63804;53.120;8.764;2023-07-29T08:37:12;100688.59;;;21.26;70.07
54920;BME280;63804;53.120;8.764;2023-07-29T08:39:40;100687.34;;;21.37;69.55
54920;BME280;63804;53.120;8.764;2023-07-29T08:42:08;100692.06;;;21.35;69.47
54920;BME280;63804;53.120;8.764;2023-07-29T08:44:42;100696.34;;;21.44;68.79
54920;BME280;63804;53.120;8.764;2023-07-29T08:47:09;100689.56;;;21.48;68.34
54920;BME280;63804;53.120;8.764;2023-07-29T08:49:38;100682.31;;;21.63;67.43
54920;BME280;63804;53.120;8.764;2023-07-29T08:52:06;100683.31;;;21.77;67.07
54920;BME280;63804;53.120;8.764;2023-07-29T08:54:34;100679.13;;;21.75;67.62
54920;BME280;63804;53.120;8.764;2023-07-29T08:57:02;100675.50;;;21.82;67.28
54920;BME280;63804;53.120;8.764;2023-07-29T08:59:30;100671.03;;;21.89;66.93
54920;BME280;63804;53.120;8.764;2023-07-29T09:01:58;100673.88;;;22.03;67.07
54920;BME280;63804;53.120;8.764;2023-07-29T09:04:25;100669.22;;;22.11;65.93
54920;BME280;63804;53.120;8.764;2023-07-29T09:06:53;100676.13;;;22.14;65.88
54920;BME280;63804;53.120;8.764;2023-07-29T09:09:22;100671.94;;;21.97;65.44
54920;BME280;63804;53.120;8.764;2023-07-29T09:11:50;100682.91;;;22.10;64.76
54920;BME280;63804;53.120;8.764;2023-07-29T09:14:17;100670.41;;;22.09;64.23
54920;BME280;63804;53.120;8.764;2023-07-29T09:16:45;100678.72;;;22.07;64.18
54920;BME280;63804;53.120;8.764;2023-07-29T09:19:13;100673.50;;;22.06;64.01
54920;BME280;63804;53.120;8.764;2023-07-29T09:21:41;100674.34;;;22.06;63.93
54920;BME280;63804;53.120;8.764;2023-07-29T09:24:08;100672.97;;;21.96;64.46
54920;BME280;63804;53.120;8.764;2023-07-29T09:26:36;100669.06;;;21.98;64.47
54920;BME280;63804;53.120;8.764;2023-07-29T09:29:04;100674.63;;;21.97;64.97
54920;BME280;63804;53.120;8.764;2023-07-29T09:31:31;100675.31;;;21.99;64.19
54920;BME280;63804;53.120;8.764;2023-07-29T09:34:01;100669.25;;;21.97;64.54
54920;BME280;63804;53.120;8.764;2023-07-29T09:36:31;100661.28;;;21.88;63.72
54920;BME280;63804;53.120;8.764;2023-07-29T09:38:59;100669.94;;;21.84;63.45
54920;BME280;63804;53.120;8.764;2023-07-29T09:41:28;100660.63;;;21.86;64.11
54920;BME280;63804;53.120;8.764;2023-07-29T09:43:57;100660.19;;;21.83;64.54
54920;BME280;63804;53.120;8.764;2023-07-29T09:46:25;100658.50;;;21.82;64.70
54920;BME280;63804;53.120;8.764;2023-07-29T09:48:58;100666.88;;;21.87;65.00
54920;BME280;63804;53.120;8.764;2023-07-29T09:51:26;100658.00;;;21.93;65.18
54920;BME280;63804;53.120;8.764;2023-07-29T09:53:53;100652.00;;;22.12;64.47
54920;BME280;63804;53.120;8.764;2023-07-29T09:56:25;100656.53;;;22.27;63.92
54920;BME280;63804;53.120;8.764;2023-07-29T09:58:55;100647.53;;;22.20;63.95
54920;BME280;63804;53.120;8.764;2023-07-29T10:01:24;100653.59;;;22.22;64.48
54920;BME280;63804;53.120;8.764;2023-07-29T10:03:52;100644.22;;;22.18;64.62
54920;BME280;63804;53.120;8.764;2023-07-29T10:06:20;100645.13;;;22.25;64.25
54920;BME280;63804;53.120;8.764;2023-07-29T10:08:49;100644.72;;;22.49;63.24
54920;BME280;63804;53.120;8.764;2023-07-29T10:11:17;100640.06;;;22.65;63.50
54920;BME280;63804;53.120;8.764;2023-07-29T10:13:48;100636.94;;;22.61;62.85
54920;BME280;63804;53.120;8.764;2023-07-29T10:16:34;100641.84;;;22.79;62.84
54920;BME280;63804;53.120;8.764;2023-07-29T10:19:04;100647.66;;;22.76;62.02
54920;BME280;63804;53.120;8.764;2023-07-29T10:21:32;100645.25;;;22.87;60.87
54920;BME280;63804;53.120;8.764;2023-07-29T10:24:03;100640.59;;;22.75;61.19
54920;BME280;63804;53.120;8.764;2023-07-29T10:26:33;100645.78;;;22.55;62.06
54920;BME280;63804;53.120;8.764;2023-07-29T10:29:04;100644.97;;;22.54;61.52
54920;BME280;63804;53.120;8.764;2023-07-29T10:31:35;100644.34;;;22.52;60.79
54920;BME280;63804;53.120;8.764;2023-07-29T10:34:04;100646.59;;;22.49;60.82
54920;BME280;63804;53.120;8.764;2023-07-29T10:36:32;100649.97;;;22.36;61.08
54920;BME280;63804;53.120;8.764;2023-07-29T10:38:59;100639.19;;;22.36;60.77
54920;BME280;63804;53.120;8.764;2023-07-29T10:47:27;100649.34;;;22.34;60.64
54920;BME280;63804;53.120;8.764;2023-07-29T10:49:57;100646.06;;;22.38;60.50
54920;BME280;63804;53.120;8.764;2023-07-29T10:52:42;100635.03;;;22.33;58.46
54920;BME280;63804;53.120;8.764;2023-07-29T10:55:33;100635.47;;;22.37;59.20
54920;BME280;63804;53.120;8.764;2023-07-29T10:58:14;100637.13;;;22.38;59.94
54920;BME280;63804;53.120;8.764;2023-07-29T11:00:43;100646.97;;;22.46;59.87
54920;BME280;63804;53.120;8.764;2023-07-29T11:03:12;100637.47;;;22.78;58.89
54920;BME280;63804;53.120;8.764;2023-07-29T11:05:50;100635.22;;;22.81;57.84
54920;BME280;63804;53.120;8.764;2023-07-29T11:08:28;100640.09;;;22.93;58.64
54920;BME280;63804;53.120;8.764;2023-07-29T11:11:06;100643.47;;;22.95;57.15
54920;BME280;63804;53.120;8.764;2023-07-29T11:13:36;100640.59;;;22.75;59.01
54920;BME280;63804;53.120;8.764;2023-07-29T11:16:04;100650.28;;;22.69;58.81
54920;BME280;63804;53.120;8.764;2023-07-29T11:18:34;100646.22;;;22.80;58.61
54920;BME280;63804;53.120;8.764;2023-07-29T11:21:03;100643.84;;;22.70;58.15
54920;BME280;63804;53.120;8.764;2023-07-29T11:23:34;100652.28;;;22.60;58.90
54920;BME280;63804;53.120;8.764;2023-07-29T11:26:03;100653.13;;;22.61;59.09
54920;BME280;63804;53.120;8.764;2023-07-29T11:28:37;100647.06;;;22.80;58.22
54920;BME280;63804;53.120;8.764;2023-07-29T11:31:05;100649.25;;;22.92;58.30
54920;BME280;63804;53.120;8.764;2023-07-29T11:33:33;100654.72;;;22.98;58.43
54920;BME280;63804;53.120;8.764;2023-07-29T11:36:00;100655.38;;;22.85;59.12
54920;BME280;63804;53.120;8.764;2023-07-29T11:38:28;100662.88;;;22.83;58.74
54920;BME280;63804;53.120;8.764;2023-07-29T11:41:00;100650.53;;;22.96;58.36
54920;BME280;63804;53.120;8.764;2023-07-29T11:43:28;100651.63;;;23.08;58.40
54920;BME280;63804;53.120;8.764;2023-07-29T11:45:55;100656.09;;;23.22;58.00
54920;BME280;63804;53.120;8.764;2023-07-29T11:48:32;100649.91;;;23.28;56.86
54920;BME280;63804;53.120;8.764;2023-07-29T11:51:00;100653.19;;;23.17;58.38
54920;BME280;63804;53.120;8.764;2023-07-29T11:53:30;100652.72;;;23.14;58.72
54920;BME280;63804;53.120;8.764;2023-07-29T11:55:58;100663.50;;;23.07;58.09
54920;BME280;63804;53.120;8.764;2023-07-29T11:58:26;100666.94;;;22.94;58.03
54920;BME280;63804;53.120;8.764;2023-07-29T12:00:53;100669.63;;;22.94;57.14
54920;BME280;63804;53.120;8.764;2023-07-29T12:03:21;100675.44;;;22.91;56.96
54920;BME280;63804;53.120;8.764;2023-07-29T12:05:49;100666.41;;;22.84;57.90
54920;BME280;63804;53.120;8.764;2023-07-29T12:08:17;100664.91;;;22.81;57.21
54920;BME280;63804;53.120;8.764;2023-07-29T12:10:45;100666.41;;;23.05;57.10
54920;BME280;63804;53.120;8.764;2023-07-29T12:13:12;100672.47;;;23.14;57.71
54920;BME280;63804;53.120;8.764;2023-07-29T12:15:40;100669.72;;;23.35;57.02
54920;BME280;63804;53.120;8.764;2023-07-29T12:18:07;100654.22;;;23.51;56.17
54920;BME280;63804;53.120;8.764;2023-07-29T12:20:35;100663.28;;;23.37;56.61
54920;BME280;63804;53.120;8.764;2023-07-29T12:23:03;100658.19;;;23.20;56.69
54920;BME280;63804;53.120;8.764;2023-07-29T12:25:33;100661.81;;;23.06;56.47
54920;BME280;63804;53.120;8.764;2023-07-29T12:28:03;100665.13;;;23.36;56.39
54920;BME280;63804;53.120;8.764;2023-07-29T12:30:30;100663.44;;;23.35;56.26
54920;BME280;63804;53.120;8.764;2023-07-29T12:32:58;100661.50;;;23.22;56.75
54920;BME280;63804;53.120;8.764;2023-07-29T12:35:36;100658.31;;;23.12;57.00
54920;BME280;63804;53.120;8.764;2023-07-29T12:38:05;100661.03;;;23.12;57.57
54920;BME280;63804;53.120;8.764;2023-07-29T12:40:32;100665.03;;;23.23;57.55
54920;BME280;63804;53.120;8.764;2023-07-29T12:42:59;100657.97;;;23.22;57.18
54920;BME280;63804;53.120;8.764;2023-07-29T12:45:35;100658.63;;;23.24;57.68
54920;BME280;63804;53.120;8.764;2023-07-29T12:48:03;100663.38;;;23.22;57.31
54920;BME280;63804;53.120;8.764;2023-07-29T12:50:30;100651.31;;;23.18;57.00
54920;BME280;63804;53.120;8.764;2023-07-29T12:52:57;100654.13;;;23.38;57.04
54920;BME280;63804;53.120;8.764;2023-07-29T12:55:25;100642.25;;;23.67;56.51
54920;BME280;63804;53.120;8.764;2023-07-29T12:57:52;100650.50;;;23.65;55.40
54920;BME280;63804;53.120;8.764;2023-07-29T13:00:19;100640.25;;;23.47;55.66
54920;BME280;63804;53.120;8.764;2023-07-29T13:02:47;100643.56;;;23.49;55.67
54920;BME280;63804;53.120;8.764;2023-07-29T13:05:14;100630.13;;;23.63;56.55
54920;BME280;63804;53.120;8.764;2023-07-29T13:07:42;100634.19;;;23.87;55.53
54920;BME280;63804;53.120;8.764;2023-07-29T13:10:10;100623.84;;;23.97;54.11
54920;BME280;63804;53.120;8.764;2023-07-29T13:12:38;100631.34;;;24.08;53.88